createdAt,value
2018-09-15T05:21:26.527Z,9.15
2018-09-15T05:23:54.056Z,8.45
2018-09-15T05:26:21.719Z,8.70
2018-09-15T05:28:50.375Z,8.65
2018-09-15T05:31:19.016Z,9.13
2018-09-15T05:33:46.865Z,9.08
2018-09-15T05:36:14.390Z,9.45
2018-09-15T05:38:42.032Z,8.93
2018-09-15T05:41:10.532Z,9.33
2018-09-15T05:43:40.136Z,9.25
2018-09-15T05:46:07.857Z,10.00
2018-09-15T05:48:35.616Z,9.75
2018-09-15T05:51:03.216Z,9.58
2018-09-15T05:53:30.833Z,9.70
2018-09-15T05:55:58.460Z,9.60
2018-09-15T05:58:26.000Z,9.25
2018-09-15T06:00:54.127Z,9.70
2018-09-15T06:03:21.582Z,9.73
2018-09-15T06:05:49.245Z,9.38
2018-09-15T06:08:26.792Z,10.03
2018-09-15T06:10:54.225Z,9.78
2018-09-15T06:13:21.716Z,10.13
2018-09-15T06:15:49.349Z,9.98
2018-09-15T06:18:16.927Z,10.30
2018-09-15T06:20:44.341Z,10.43
2018-09-15T06:23:16.300Z,10.43
2018-09-15T06:25:43.972Z,10.23
2018-09-15T06:28:11.390Z,10.40
2018-09-15T06:30:38.900Z,10.55
2018-09-15T06:33:06.342Z,10.17
2018-09-15T06:35:33.794Z,10.30
2018-09-15T06:38:17.949Z,10.60
2018-09-15T06:40:54.887Z,9.97
2018-09-15T06:43:24.933Z,10.08
2018-09-15T06:45:54.720Z,9.85
2018-09-15T06:48:23.134Z,10.05
2018-09-15T06:50:50.654Z,9.53
2018-09-15T06:53:19.461Z,10.43
2018-09-15T06:55:47.549Z,9.58
2018-09-15T06:58:14.980Z,9.45
2018-09-15T07:00:42.444Z,9.93
2018-09-15T07:03:09.903Z,9.35
2018-09-15T07:05:37.376Z,9.50
2018-09-15T07:08:04.860Z,9.47
2018-09-15T07:10:34.747Z,9.28
2018-09-15T07:13:02.943Z,9.38
2018-09-15T07:15:30.432Z,9.38
2018-09-15T07:17:57.919Z,9.48
2018-09-15T07:20:25.372Z,8.85
2018-09-15T07:22:52.887Z,8.83
2018-09-15T07:25:20.313Z,8.55
2018-09-15T07:27:55.948Z,9.05
2018-09-15T07:30:23.467Z,8.68
2018-09-15T07:32:57.456Z,8.80
2018-09-15T07:35:32.267Z,8.93
2018-09-15T07:37:59.934Z,9.38
2018-09-15T07:40:33.647Z,9.28
2018-09-15T07:43:01.855Z,9.13
2018-09-15T07:45:29.241Z,10.15
2018-09-15T07:47:59.278Z,10.25
2018-09-15T07:50:26.933Z,9.20
2018-09-15T07:53:08.015Z,10.38
2018-09-15T07:55:35.491Z,10.25
2018-09-15T07:58:03.029Z,9.70
2018-09-15T08:00:30.479Z,10.98
2018-09-15T08:02:58.021Z,10.32
2018-09-15T08:05:25.417Z,10.90
2018-09-15T08:07:52.859Z,11.38
2018-09-15T08:10:20.387Z,11.20
2018-09-15T08:13:00.393Z,11.85
2018-09-15T08:15:27.836Z,10.68
2018-09-15T08:17:55.371Z,10.70
2018-09-15T08:20:23.328Z,10.03
2018-09-15T08:22:51.010Z,11.00
2018-09-15T08:25:18.561Z,10.82
2018-09-15T08:27:47.628Z,10.15
2018-09-15T08:30:15.242Z,10.08
2018-09-15T08:32:42.738Z,10.35
2018-09-15T08:35:10.262Z,10.75
2018-09-15T08:37:37.685Z,10.10
2018-09-15T08:40:09.990Z,10.40
2018-09-15T08:42:37.424Z,10.68
2018-09-15T08:45:04.903Z,9.65
2018-09-15T08:47:32.386Z,8.65
2018-09-15T08:49:59.825Z,9.08
2018-09-15T08:52:28.223Z,8.60
2018-09-15T08:54:57.336Z,9.10
2018-09-15T08:57:24.984Z,8.85
